createdAt,value
2023-03-07T00:00:50.720Z,4.07
2023-03-07T00:03:39.667Z,4.38
2023-03-07T00:06:28.728Z,3.42
2023-03-07T00:09:18.754Z,4.78
2023-03-07T00:12:08.306Z,4.43
2023-03-07T00:14:58.168Z,5.43
2023-03-07T00:17:46.844Z,3.30
2023-03-07T00:20:35.862Z,3.60
2023-03-07T00:23:24.467Z,6.07
2023-03-07T00:26:16.376Z,5.72
2023-03-07T00:29:09.478Z,3.92
2023-03-07T00:31:58.077Z,4.57
2023-03-07T00:34:50.343Z,4.28
2023-03-07T00:37:39.020Z,4.32
2023-03-07T00:40:27.937Z,3.60
2023-03-07T00:43:18.297Z,2.95
2023-03-07T00:46:07.697Z,1.83
2023-03-07T00:48:56.764Z,5.70
2023-03-07T00:51:45.426Z,4.20
2023-03-07T00:54:34.103Z,3.97
2023-03-07T00:57:23.252Z,5.30
2023-03-07T01:00:15.126Z,2.20
2023-03-07T01:03:04.211Z,2.22
2023-03-07T01:05:53.629Z,2.47
2023-03-07T01:08:42.656Z,4.68
2023-03-07T01:11:31.971Z,3.10
2023-03-07T01:14:20.613Z,2.45
2023-03-07T01:17:11.527Z,2.42
2023-03-07T01:20:00.182Z,2.15
2023-03-07T01:22:49.204Z,4.40
2023-03-07T01:25:41.675Z,3.00
2023-03-07T01:28:30.241Z,1.75
2023-03-07T01:31:18.932Z,2.03
2023-03-07T01:34:09.073Z,4.18
2023-03-07T01:36:57.734Z,1.88
2023-03-07T01:39:46.927Z,2.20
2023-03-07T01:42:35.611Z,1.60
2023-03-07T01:46:01.669Z,1.85
2023-03-07T01:48:53.493Z,2.08
2023-03-07T01:51:46.882Z,2.55
2023-03-07T01:54:38.375Z,1.70
2023-03-07T01:57:29.941Z,1.52
2023-03-07T02:00:26.325Z,1.98
2023-03-07T02:03:21.355Z,1.55
2023-03-07T02:06:12.202Z,1.95
2023-03-07T02:09:03.185Z,2.55
2023-03-07T02:11:52.004Z,2.83
2023-03-07T02:14:40.748Z,1.98
2023-03-07T02:17:30.031Z,1.75
2023-03-07T02:20:28.179Z,2.03
2023-03-07T02:23:24.061Z,2.40
2023-03-07T02:26:19.095Z,1.95
2023-03-07T02:29:09.215Z,1.73
2023-03-07T02:31:58.698Z,1.75
2023-03-07T02:34:47.342Z,3.13
2023-03-07T02:37:38.912Z,1.42
2023-03-07T02:40:29.077Z,1.30
2023-03-07T02:43:17.932Z,2.95
2023-03-07T02:46:08.263Z,1.60
2023-03-07T02:48:56.999Z,3.47
2023-03-07T02:51:45.577Z,0.90
2023-03-07T02:54:34.180Z,1.20
2023-03-07T02:57:22.847Z,3.42
2023-03-07T03:00:13.266Z,3.83
2023-03-07T03:03:03.488Z,1.35
2023-03-07T03:05:52.153Z,0.90
2023-03-07T03:08:40.846Z,0.70
2023-03-07T03:11:31.390Z,1.90
2023-03-07T03:14:20.370Z,1.58
2023-03-07T03:17:08.974Z,1.10
2023-03-07T03:19:59.886Z,1.13
2023-03-07T03:22:48.446Z,2.72
2023-03-07T03:25:38.678Z,0.60
2023-03-07T03:28:29.095Z,1.27
2023-03-07T03:31:18.045Z,1.50
2023-03-07T03:34:06.649Z,0.80
2023-03-07T03:36:56.698Z,0.95
2023-03-07T03:39:45.335Z,3.80
2023-03-07T03:42:33.952Z,0.63
2023-03-07T03:45:22.670Z,2.08
2023-03-07T03:48:11.469Z,1.63
2023-03-07T03:51:04.927Z,1.38
2023-03-07T03:53:55.298Z,1.08
2023-03-07T03:56:43.846Z,0.60
2023-03-07T03:59:32.810Z,1.27
2023-03-07T04:02:22.291Z,0.65
2023-03-07T04:05:11.292Z,0.88
2023-03-07T04:08:00.164Z,0.63
2023-03-07T04:10:50.153Z,0.70
2023-03-07T04:13:38.814Z,0.77
2023-03-07T04:16:27.438Z,1.08
2023-03-07T04:19:16.068Z,1.08
2023-03-07T04:22:05.583Z,0.60
2023-03-07T04:24:54.151Z,0.73
2023-03-07T04:27:44.214Z,0.30
2023-03-07T04:30:33.028Z,0.93
2023-03-07T04:33:22.239Z,1.23
2023-03-07T04:36:11.215Z,0.65
2023-03-07T04:38:59.814Z,1.27
2023-03-07T04:41:48.753Z,0.47
2023-03-07T04:44:38.919Z,0.50
2023-03-07T04:47:27.639Z,0.68
2023-03-07T04:50:16.292Z,1.48
2023-03-07T04:53:04.867Z,3.83
2023-03-07T04:55:58.200Z,0.38
2023-03-07T04:58:47.058Z,0.85
2023-03-07T05:01:37.090Z,2.78
2023-03-07T05:04:27.776Z,0.57
2023-03-07T05:07:16.463Z,0.52
2023-03-07T05:10:05.354Z,1.10
2023-03-07T05:12:53.989Z,0.52
2023-03-07T05:15:42.857Z,0.40
2023-03-07T05:18:32.933Z,0.68
2023-03-07T05:21:21.680Z,1.23
2023-03-07T05:24:10.346Z,0.70
2023-03-07T05:26:59.092Z,0.47
2023-03-07T05:29:47.765Z,1.15
2023-03-07T05:32:36.540Z,0.52
2023-03-07T05:35:27.700Z,1.92
2023-03-07T05:38:16.372Z,2.10
2023-03-07T05:41:05.917Z,0.63
2023-03-07T05:43:55.413Z,3.88
2023-03-07T05:46:44.045Z,5.22
2023-03-07T05:49:32.704Z,3.08
2023-03-07T05:52:22.697Z,4.07
2023-03-07T05:55:12.161Z,2.85
2023-03-07T05:58:00.821Z,5.20
2023-03-07T06:00:49.730Z,1.98
2023-03-07T06:03:38.525Z,2.45
2023-03-07T06:06:27.206Z,2.78
2023-03-07T06:09:17.468Z,2.50
2023-03-07T06:12:06.476Z,3.38
2023-03-07T06:14:55.124Z,3.10
2023-03-07T06:17:44.186Z,4.20
2023-03-07T06:20:32.845Z,4.70
2023-03-07T06:23:21.539Z,4.65
2023-03-07T06:26:12.420Z,5.93
2023-03-07T06:29:02.052Z,2.88
2023-03-07T06:31:51.284Z,2.58
2023-03-07T06:34:39.948Z,2.70
2023-03-07T06:37:28.733Z,11.98
2023-03-07T06:40:17.788Z,2.38
2023-03-07T06:43:07.926Z,3.10
2023-03-07T06:45:56.956Z,2.47
2023-03-07T06:48:45.665Z,5.55
2023-03-07T06:51:36.070Z,3.47
2023-03-07T06:54:26.689Z,2.78
2023-03-07T06:57:15.314Z,3.20
2023-03-07T07:00:07.128Z,6.00
2023-03-07T07:02:56.198Z,5.68
2023-03-07T07:05:45.560Z,4.50
2023-03-07T07:08:34.178Z,3.05
2023-03-07T07:11:23.186Z,1.90
2023-03-07T07:14:12.759Z,2.47
2023-03-07T07:17:03.760Z,3.30
2023-03-07T07:19:52.540Z,2.13
2023-03-07T07:22:42.917Z,2.22
2023-03-07T07:25:32.056Z,2.20
2023-03-07T07:28:21.525Z,2.40
2023-03-07T07:31:11.376Z,2.25
2023-03-07T07:34:01.362Z,2.15
2023-03-07T07:36:50.317Z,2.55
2023-03-07T07:39:41.343Z,2.22
2023-03-07T07:42:32.281Z,1.92
2023-03-07T07:45:21.190Z,1.95
2023-03-07T07:48:10.075Z,1.83
2023-03-07T07:51:03.560Z,1.92
2023-03-07T07:53:52.166Z,1.75
2023-03-07T07:56:41.306Z,2.40
2023-03-07T07:59:32.231Z,2.42
2023-03-07T08:02:21.133Z,1.55
2023-03-07T08:05:12.524Z,1.60
2023-03-07T08:08:02.784Z,1.50
2023-03-07T08:10:51.494Z,1.60
2023-03-07T08:13:40.082Z,1.48
2023-03-07T08:16:29.370Z,1.65
2023-03-07T08:19:18.005Z,1.60
2023-03-07T08:22:07.198Z,1.77
2023-03-07T08:24:57.243Z,1.38
2023-03-07T08:27:45.997Z,1.48
2023-03-07T08:30:36.233Z,2.67
2023-03-07T08:33:24.940Z,1.17
2023-03-07T08:36:13.525Z,1.30
2023-03-07T08:39:02.304Z,0.93
2023-03-07T08:41:55.249Z,0.88
2023-03-07T08:44:44.180Z,2.97
2023-03-07T08:47:32.810Z,1.05
2023-03-07T08:50:22.048Z,1.33
2023-03-07T08:53:11.078Z,1.23
2023-03-07T08:55:59.771Z,0.70
2023-03-07T08:58:49.841Z,1.55
2023-03-07T09:01:41.031Z,1.13
2023-03-07T09:04:30.195Z,1.13
2023-03-07T09:07:19.522Z,0.75
2023-03-07T09:10:11.813Z,1.10
2023-03-07T09:13:00.456Z,1.02
2023-03-07T09:15:51.722Z,0.80
2023-03-07T09:18:40.677Z,0.95
2023-03-07T09:21:30.477Z,1.67
2023-03-07T09:24:19.629Z,0.70
2023-03-07T09:27:08.356Z,0.50
2023-03-07T09:29:57.226Z,6.60
2023-03-07T09:32:47.341Z,0.90
2023-03-07T09:35:36.048Z,0.90
2023-03-07T09:38:24.967Z,1.02
2023-03-07T09:41:44.559Z,0.95
2023-03-07T09:44:47.937Z,0.82
2023-03-07T09:47:53.786Z,1.95
2023-03-07T09:50:45.668Z,0.80
2023-03-07T09:53:39.000Z,0.80
2023-03-07T09:56:31.236Z,0.95
2023-03-07T09:59:24.477Z,0.80
2023-03-07T10:02:18.131Z,0.75
2023-03-07T10:05:19.259Z,0.80
2023-03-07T10:08:11.717Z,0.55
2023-03-07T10:11:08.483Z,3.83
2023-03-07T10:14:06.683Z,0.95
2023-03-07T10:17:02.108Z,1.20
2023-03-07T10:19:52.433Z,0.77
2023-03-07T10:22:46.455Z,0.80
2023-03-07T10:25:36.115Z,0.60
2023-03-07T10:28:27.456Z,0.90
2023-03-07T10:31:19.714Z,3.40
2023-03-07T10:34:26.435Z,1.30
2023-03-07T10:37:19.976Z,0.65
2023-03-07T10:40:17.634Z,0.60
2023-03-07T10:43:06.769Z,0.70
2023-03-07T10:46:00.331Z,1.58
2023-03-07T10:48:51.353Z,0.90
2023-03-07T10:51:51.568Z,1.00
2023-03-07T10:54:40.767Z,1.27
2023-03-07T10:57:31.033Z,0.95
2023-03-07T11:00:20.776Z,2.10
2023-03-07T11:03:24.310Z,0.82
2023-03-07T11:06:35.071Z,1.30
2023-03-07T11:09:29.136Z,0.93
2023-03-07T11:12:21.677Z,1.30
2023-03-07T11:15:19.385Z,1.15
2023-03-07T11:18:27.147Z,1.00
2023-03-07T11:21:29.914Z,0.60
2023-03-07T11:24:26.503Z,2.03
2023-03-07T11:27:23.024Z,1.10
2023-03-07T11:30:25.184Z,3.20
2023-03-07T11:33:18.914Z,1.17
2023-03-07T11:36:10.792Z,0.82
2023-03-07T11:39:03.826Z,1.00
2023-03-07T11:41:57.274Z,1.42
2023-03-07T11:44:51.659Z,0.95
2023-03-07T11:47:49.942Z,1.70
2023-03-07T11:50:39.439Z,4.13
2023-03-07T11:53:54.762Z,1.63
2023-03-07T11:56:48.874Z,1.27
2023-03-07T12:00:17.920Z,1.23
2023-03-07T12:03:18.852Z,1.13
2023-03-07T12:06:19.730Z,1.38
2023-03-07T12:09:18.487Z,1.08
2023-03-07T12:12:25.431Z,1.80
2023-03-07T12:15:28.927Z,2.05
2023-03-07T12:18:37.389Z,0.90
2023-03-07T12:21:37.413Z,1.40
2023-03-07T12:24:29.125Z,0.85
2023-03-07T12:27:25.550Z,0.98
2023-03-07T12:30:18.264Z,1.55
2023-03-07T12:33:08.111Z,1.15
2023-03-07T12:36:00.307Z,1.40
2023-03-07T12:38:53.107Z,0.73
2023-03-07T12:41:49.574Z,1.23
2023-03-07T12:44:42.613Z,1.40
2023-03-07T12:47:34.467Z,1.40
2023-03-07T12:50:28.949Z,2.25
2023-03-07T12:53:22.601Z,2.70
2023-03-07T12:56:15.778Z,1.33
2023-03-07T12:59:10.059Z,1.58
2023-03-07T13:02:03.268Z,1.98
2023-03-07T13:04:52.271Z,2.05
2023-03-07T13:07:42.722Z,2.15
2023-03-07T13:10:33.115Z,1.77
2023-03-07T13:13:56.956Z,1.60
2023-03-07T13:16:47.036Z,1.90
2023-03-07T13:19:55.993Z,1.27
2023-03-07T13:23:02.299Z,0.95
2023-03-07T13:26:01.126Z,1.60
2023-03-07T13:28:51.624Z,1.27
2023-03-07T13:31:43.901Z,2.78
2023-03-07T13:34:48.917Z,5.28
2023-03-07T13:37:53.121Z,4.63
2023-03-07T13:40:54.385Z,3.50
2023-03-07T13:44:01.732Z,2.35
2023-03-07T13:46:54.211Z,1.50
2023-03-07T13:49:46.969Z,1.23
2023-03-07T13:52:45.302Z,3.25
2023-03-07T13:55:41.578Z,1.27
2023-03-07T13:58:35.762Z,2.30
2023-03-07T14:01:30.466Z,1.20
2023-03-07T14:04:36.998Z,1.30
2023-03-07T14:07:30.607Z,1.85
2023-03-07T14:10:23.847Z,1.55
2023-03-07T14:13:29.004Z,1.98
2023-03-07T14:16:28.028Z,1.85
2023-03-07T14:19:37.956Z,2.67
2023-03-07T14:22:41.368Z,1.73
2023-03-07T14:25:32.408Z,1.27
2023-03-07T14:28:25.086Z,1.67
2023-03-07T14:31:25.304Z,4.80
2023-03-07T14:34:28.648Z,1.63
2023-03-07T14:37:20.577Z,1.15
2023-03-07T14:40:30.732Z,3.53
2023-03-07T14:43:39.456Z,1.65
2023-03-07T14:46:33.840Z,3.50
2023-03-07T14:49:31.909Z,5.50
2023-03-07T14:52:30.789Z,6.10
2023-03-07T14:55:22.481Z,3.65
2023-03-07T14:58:18.300Z,1.98
2023-03-07T15:01:08.526Z,2.25
2023-03-07T15:03:57.204Z,2.10
2023-03-07T15:06:47.697Z,1.95
2023-03-07T15:09:36.433Z,1.67
2023-03-07T15:12:27.230Z,1.73
2023-03-07T15:15:24.136Z,2.78
2023-03-07T15:18:19.489Z,2.30
2023-03-07T15:21:09.503Z,1.45
2023-03-07T15:24:00.020Z,1.80
2023-03-07T15:26:53.528Z,1.50
2023-03-07T15:29:48.849Z,1.10
2023-03-07T15:32:38.996Z,0.75
2023-03-07T15:35:31.142Z,1.23
2023-03-07T15:38:26.138Z,1.00
2023-03-07T15:41:30.328Z,1.17
2023-03-07T15:44:21.248Z,1.88
2023-03-07T15:47:19.080Z,1.67
2023-03-07T15:50:08.611Z,2.40
2023-03-07T15:53:02.967Z,1.10
2023-03-07T15:55:57.234Z,1.08
2023-03-07T15:58:47.536Z,1.05
2023-03-07T16:01:36.265Z,1.02
2023-03-07T16:04:37.935Z,0.65
2023-03-07T16:07:26.614Z,2.08
2023-03-07T16:10:15.842Z,5.15
2023-03-07T16:13:04.455Z,1.05
2023-03-07T16:16:14.937Z,1.92
2023-03-07T16:19:03.592Z,0.55
2023-03-07T16:21:52.318Z,4.75
2023-03-07T16:24:40.900Z,2.33
2023-03-07T16:27:30.142Z,1.50
2023-03-07T16:30:21.674Z,2.88
2023-03-07T16:33:13.292Z,3.03
2023-03-07T16:36:01.970Z,1.77
2023-03-07T16:38:50.591Z,0.60
2023-03-07T16:41:40.616Z,1.13
2023-03-07T16:44:29.510Z,0.50
2023-03-07T16:47:19.485Z,8.25
2023-03-07T16:50:15.711Z,1.00
2023-03-07T16:53:04.731Z,4.32
2023-03-07T16:55:53.671Z,5.45
2023-03-07T16:58:44.324Z,2.97
2023-03-07T17:01:33.947Z,2.55
2023-03-07T17:04:22.572Z,2.53
2023-03-07T17:07:17.583Z,4.03
2023-03-07T17:10:06.893Z,2.90
2023-03-07T17:12:56.749Z,3.75
2023-03-07T17:15:47.026Z,2.28
2023-03-07T17:18:35.618Z,3.72
2023-03-07T17:21:24.264Z,0.30
2023-03-07T17:24:14.721Z,0.93
2023-03-07T17:27:03.973Z,3.15
2023-03-07T17:29:54.658Z,0.63
2023-03-07T17:32:43.319Z,5.65
2023-03-07T17:35:32.425Z,0.60
2023-03-07T17:38:21.038Z,3.38
2023-03-07T17:41:11.452Z,4.35
2023-03-07T17:44:01.141Z,0.82
2023-03-07T17:46:49.854Z,3.70
2023-03-07T17:49:40.283Z,3.30
2023-03-07T17:52:29.243Z,2.55
2023-03-07T17:55:18.072Z,7.47
2023-03-07T17:58:09.899Z,4.88
2023-03-07T18:00:58.621Z,10.77
2023-03-07T18:03:47.210Z,13.25
2023-03-07T18:06:38.466Z,9.63
2023-03-07T18:09:28.899Z,11.07
2023-03-07T18:12:18.283Z,10.68
2023-03-07T18:15:10.643Z,9.52
2023-03-07T18:17:59.502Z,10.18
2023-03-07T18:20:58.280Z,7.55
2023-03-07T18:23:46.995Z,11.05
2023-03-07T18:26:35.670Z,8.35
2023-03-07T18:29:25.662Z,10.35
2023-03-07T18:32:15.658Z,10.40
2023-03-07T18:35:04.375Z,8.88
2023-03-07T18:37:52.974Z,8.50
2023-03-07T18:40:41.697Z,10.68
2023-03-07T18:43:30.378Z,17.15
2023-03-07T18:46:21.071Z,6.63
2023-03-07T18:49:11.409Z,6.72
2023-03-07T18:52:00.143Z,6.00
2023-03-07T18:54:49.838Z,4.63
2023-03-07T18:57:38.630Z,9.55
2023-03-07T19:00:27.607Z,6.45
2023-03-07T19:03:16.467Z,9.18
2023-03-07T19:06:06.937Z,7.75
2023-03-07T19:08:55.685Z,19.17
2023-03-07T19:11:44.406Z,87.95
2023-03-07T19:14:33.658Z,175.40
2023-03-07T19:17:22.414Z,258.10
2023-03-07T19:20:12.242Z,305.52
2023-03-07T19:23:02.253Z,292.40
2023-03-07T19:25:50.909Z,325.02
2023-03-07T19:28:40.044Z,329.63
2023-03-07T19:31:34.981Z,305.75
2023-03-07T19:34:23.583Z,319.15
2023-03-07T19:37:12.308Z,302.98
2023-03-07T19:40:02.315Z,330.73
2023-03-07T19:42:50.999Z,304.65
2023-03-07T19:45:41.454Z,253.38
2023-03-07T19:48:31.128Z,196.30
2023-03-07T19:51:22.507Z,200.50
2023-03-07T19:54:12.048Z,190.02
2023-03-07T19:57:02.377Z,204.77
2023-03-07T19:59:53.843Z,216.32
2023-03-07T20:02:42.629Z,225.25
2023-03-07T20:05:31.392Z,206.95
2023-03-07T20:08:20.222Z,206.80
2023-03-07T20:11:12.985Z,208.63
2023-03-07T20:14:05.061Z,201.13
2023-03-07T20:16:53.652Z,192.63
2023-03-07T20:19:42.697Z,180.20
2023-03-07T20:22:31.525Z,181.60
2023-03-07T20:25:20.161Z,174.10
2023-03-07T20:28:09.845Z,172.02
2023-03-07T20:30:59.971Z,165.43
2023-03-07T20:33:49.017Z,157.60
2023-03-07T20:36:39.357Z,147.52
2023-03-07T20:39:28.151Z,154.10
2023-03-07T20:42:16.688Z,155.63
2023-03-07T20:45:05.790Z,144.90
2023-03-07T20:47:55.824Z,154.30
2023-03-07T20:50:44.544Z,151.20
2023-03-07T20:53:33.274Z,138.70
2023-03-07T20:56:22.880Z,141.13
2023-03-07T20:59:14.096Z,126.70
2023-03-07T21:02:03.050Z,117.65
2023-03-07T21:04:53.144Z,121.90
2023-03-07T21:07:42.027Z,120.88
2023-03-07T21:10:31.328Z,112.28
2023-03-07T21:13:21.575Z,105.07
2023-03-07T21:16:13.430Z,104.97
2023-03-07T21:19:03.542Z,104.63
2023-03-07T21:21:53.601Z,98.65
2023-03-07T21:24:42.372Z,85.80
2023-03-07T21:27:31.094Z,95.40
2023-03-07T21:30:19.876Z,85.03
2023-03-07T21:33:08.830Z,80.28
2023-03-07T21:35:57.767Z,89.70
2023-03-07T21:38:48.070Z,82.90
2023-03-07T21:41:36.817Z,87.72
2023-03-07T21:44:25.527Z,78.20
2023-03-07T21:47:15.767Z,67.18
2023-03-07T21:50:04.656Z,74.53
2023-03-07T21:52:53.254Z,70.78
2023-03-07T21:55:51.101Z,68.93
2023-03-07T21:58:41.009Z,64.45
2023-03-07T22:01:30.820Z,63.00
2023-03-07T22:04:19.487Z,56.88
2023-03-07T22:07:08.662Z,65.68
2023-03-07T22:09:57.296Z,59.53
2023-03-07T22:12:47.435Z,51.40
2023-03-07T22:15:36.027Z,57.63
2023-03-07T22:18:25.032Z,52.78
2023-03-07T22:21:17.139Z,50.92
2023-03-07T22:24:05.993Z,53.30
2023-03-07T22:26:54.585Z,48.78
2023-03-07T22:29:45.428Z,52.03
2023-03-07T22:32:34.371Z,50.20
2023-03-07T22:35:23.059Z,49.08
2023-03-07T22:38:11.818Z,42.17
2023-03-07T22:41:03.793Z,48.35
2023-03-07T22:43:53.535Z,40.92
2023-03-07T22:46:44.982Z,47.30
2023-03-07T22:49:34.094Z,41.40
2023-03-07T22:52:22.696Z,42.35
2023-03-07T22:55:11.831Z,40.28
2023-03-07T22:58:00.457Z,45.53
2023-03-07T23:00:49.076Z,35.22
2023-03-07T23:03:39.097Z,41.13
2023-03-07T23:06:29.566Z,38.83
2023-03-07T23:09:18.180Z,40.47
2023-03-07T23:12:07.415Z,37.92
2023-03-07T23:14:56.020Z,37.60
2023-03-07T23:17:44.726Z,35.20
2023-03-07T23:20:35.037Z,29.02
2023-03-07T23:23:23.774Z,29.58
2023-03-07T23:26:18.300Z,31.42
2023-03-07T23:29:09.726Z,32.13
2023-03-07T23:31:58.625Z,29.45
2023-03-07T23:34:47.598Z,30.38
2023-03-07T23:37:37.625Z,33.40
2023-03-07T23:40:26.479Z,29.35
2023-03-07T23:43:15.622Z,27.98
2023-03-07T23:46:04.297Z,28.63
2023-03-07T23:48:53.213Z,26.67
2023-03-07T23:51:44.546Z,31.85
2023-03-07T23:54:34.521Z,25.05
2023-03-07T23:57:23.167Z,24.95
